createdAt,value
2019-02-04T00:00:15.875Z,25.37
2019-02-04T00:02:57.981Z,27.42
2019-02-04T00:05:37.242Z,25.08
2019-02-04T00:08:17.754Z,24.33
2019-02-04T00:10:59.371Z,24.60
2019-02-04T00:13:38.469Z,24.17
2019-02-04T00:16:17.680Z,27.47
2019-02-04T00:18:57.226Z,25.12
2019-02-04T00:21:38.812Z,22.45
2019-02-04T00:24:18.135Z,22.47
2019-02-04T00:26:57.910Z,24.87
2019-02-04T00:29:37.907Z,21.52
2019-02-04T00:32:17.250Z,24.67
2019-02-04T00:35:00.665Z,26.87
2019-02-04T00:37:40.631Z,20.40
2019-02-04T00:40:21.081Z,21.30
2019-02-04T00:43:00.935Z,22.70
2019-02-04T00:45:40.646Z,21.85
2019-02-04T00:48:20.021Z,24.90
2019-02-04T00:50:59.852Z,37.97
2019-02-04T00:53:39.609Z,26.97
2019-02-04T00:56:18.779Z,31.80
2019-02-04T00:58:58.024Z,23.07
2019-02-04T01:01:37.273Z,22.83
2019-02-04T01:04:17.534Z,21.17
2019-02-04T01:06:56.832Z,20.55
2019-02-04T01:09:36.671Z,22.58
2019-02-04T01:12:19.123Z,22.77
2019-02-04T01:14:59.659Z,24.20
2019-02-04T01:17:38.821Z,22.80
2019-02-04T01:20:26.042Z,22.53
2019-02-04T01:23:05.803Z,21.33
2019-02-04T01:25:44.939Z,18.90
2019-02-04T01:28:24.216Z,18.70
2019-02-04T01:31:04.599Z,21.50
2019-02-04T01:33:43.815Z,16.47
2019-02-04T01:36:23.063Z,21.60
2019-02-04T01:39:08.651Z,21.07
2019-02-04T01:41:47.778Z,20.17
2019-02-04T01:44:27.032Z,20.37
2019-02-04T01:47:14.485Z,19.63
2019-02-04T01:49:48.689Z,18.70
2019-02-04T01:52:29.232Z,17.10
2019-02-04T01:55:12.978Z,17.23
2019-02-04T01:57:55.265Z,20.20
2019-02-04T02:00:38.202Z,17.53
2019-02-04T02:03:17.517Z,19.30
2019-02-04T02:05:56.813Z,19.80
2019-02-04T02:08:36.166Z,20.53
2019-02-04T02:11:15.438Z,18.67
2019-02-04T02:13:54.754Z,18.47
2019-02-04T02:16:34.006Z,18.10
2019-02-04T02:19:13.287Z,20.07
2019-02-04T02:21:53.145Z,22.03
2019-02-04T02:24:32.450Z,18.53
2019-02-04T02:27:14.154Z,20.43
2019-02-04T02:29:53.889Z,19.23
2019-02-04T02:32:34.414Z,17.33
2019-02-04T02:35:13.798Z,18.93
2019-02-04T02:37:53.023Z,22.67
2019-02-04T02:40:34.485Z,23.53
2019-02-04T02:43:13.885Z,21.63
2019-02-04T02:45:53.664Z,22.80
2019-02-04T02:48:32.819Z,19.23
2019-02-04T02:51:12.545Z,20.40
2019-02-04T02:53:51.717Z,22.87
2019-02-04T02:56:30.842Z,18.97
2019-02-04T02:59:09.954Z,21.47
2019-02-04T03:01:49.637Z,18.32
2019-02-04T03:04:28.772Z,18.77
2019-02-04T03:07:08.059Z,20.83
2019-02-04T03:09:48.254Z,21.77
2019-02-04T03:12:27.389Z,21.40
2019-02-04T03:15:08.136Z,20.85
2019-02-04T03:17:52.242Z,21.20
2019-02-04T03:20:28.242Z,18.47
2019-02-04T03:23:08.072Z,17.48
2019-02-04T03:25:50.260Z,18.05
2019-02-04T03:28:29.986Z,18.80
2019-02-04T03:31:11.112Z,20.77
2019-02-04T03:33:50.396Z,19.37
2019-02-04T03:36:29.522Z,19.15
2019-02-04T03:39:09.911Z,17.48
2019-02-04T03:41:49.909Z,20.25
2019-02-04T03:44:29.780Z,17.77
2019-02-04T03:47:09.118Z,18.35
2019-02-04T03:49:49.097Z,21.07
2019-02-04T03:52:28.850Z,23.98
2019-02-04T03:55:10.464Z,18.73
2019-02-04T03:57:52.074Z,21.97
2019-02-04T04:00:35.282Z,17.25
2019-02-04T04:03:14.555Z,17.10
2019-02-04T04:05:54.860Z,17.05
2019-02-04T04:08:34.657Z,19.55
2019-02-04T04:11:13.854Z,23.87
2019-02-04T04:13:53.638Z,20.72
2019-02-04T04:16:33.386Z,22.87
2019-02-04T04:19:13.233Z,23.38
2019-02-04T04:22:10.579Z,22.13
2019-02-04T04:24:50.266Z,24.82
2019-02-04T04:27:30.206Z,23.67
2019-02-04T04:30:15.588Z,23.05
2019-02-04T04:32:55.775Z,29.25
2019-02-04T04:35:34.923Z,25.05
2019-02-04T04:38:14.632Z,21.85
2019-02-04T04:40:54.411Z,23.85
2019-02-04T04:43:35.670Z,25.23
2019-02-04T04:46:14.783Z,24.95
2019-02-04T04:48:55.685Z,22.70
2019-02-04T04:51:35.295Z,23.02
2019-02-04T04:54:15.610Z,22.32
2019-02-04T04:56:54.754Z,21.93
2019-02-04T04:59:34.199Z,24.33
2019-02-04T05:02:13.579Z,23.23
2019-02-04T05:04:53.446Z,23.57
2019-02-04T05:07:32.754Z,20.75
2019-02-04T05:10:15.586Z,22.67
2019-02-04T05:12:56.634Z,21.60
2019-02-04T05:15:36.632Z,18.23
2019-02-04T05:18:16.380Z,20.05
2019-02-04T05:20:55.557Z,23.00
2019-02-04T05:23:36.754Z,19.73
2019-02-04T05:26:15.827Z,20.13
2019-02-04T05:28:57.148Z,19.07
2019-02-04T05:31:38.548Z,18.60
2019-02-04T05:34:18.317Z,25.10
2019-02-04T05:36:57.427Z,19.67
2019-02-04T05:39:36.800Z,18.40
2019-02-04T05:42:16.517Z,18.60
2019-02-04T05:44:55.968Z,16.02
2019-02-04T05:47:35.667Z,19.70
2019-02-04T05:50:17.579Z,18.63
2019-02-04T05:52:59.383Z,19.70
2019-02-04T05:55:38.582Z,17.53
2019-02-04T05:58:18.036Z,22.63
2019-02-04T06:00:59.705Z,19.20
2019-02-04T06:03:38.999Z,17.57
2019-02-04T06:06:22.349Z,20.30
2019-02-04T06:09:01.609Z,18.50
2019-02-04T06:11:42.293Z,17.80
2019-02-04T06:14:23.753Z,17.30
2019-02-04T06:17:02.850Z,16.83
2019-02-04T06:19:42.244Z,16.07
2019-02-04T06:22:21.855Z,17.10
2019-02-04T06:25:01.122Z,16.57
2019-02-04T06:27:40.744Z,19.48
2019-02-04T06:30:20.509Z,17.60
2019-02-04T06:32:59.771Z,18.70
2019-02-04T06:35:39.567Z,19.17
2019-02-04T06:38:18.820Z,14.80
2019-02-04T06:40:57.973Z,18.73
2019-02-04T06:43:38.039Z,18.87
2019-02-04T06:46:17.422Z,18.10
2019-02-04T06:48:56.552Z,19.70
2019-02-04T06:51:38.880Z,22.23
2019-02-04T06:54:18.532Z,18.13
2019-02-04T06:56:58.798Z,35.25
2019-02-04T06:59:39.352Z,19.30
2019-02-04T07:02:19.199Z,21.87
2019-02-04T07:04:59.074Z,19.15
2019-02-04T07:07:38.271Z,16.40
2019-02-04T07:10:20.731Z,15.03
2019-02-04T07:13:00.864Z,17.40
2019-02-04T07:15:40.081Z,15.47
2019-02-04T07:18:19.305Z,16.07
2019-02-04T07:20:59.101Z,17.73
2019-02-04T07:23:38.284Z,13.57
2019-02-04T07:26:18.927Z,15.08
2019-02-04T07:28:58.037Z,15.48
2019-02-04T07:31:39.418Z,14.23
2019-02-04T07:34:22.782Z,17.02
2019-02-04T07:37:02.620Z,12.95
2019-02-04T07:39:46.873Z,14.58
2019-02-04T07:42:27.877Z,18.10
2019-02-04T07:45:08.721Z,15.23
2019-02-04T07:47:48.592Z,13.50
2019-02-04T07:50:27.868Z,18.27
2019-02-04T07:53:07.136Z,20.20
2019-02-04T07:55:46.512Z,15.00
2019-02-04T07:58:26.421Z,16.75
2019-02-04T08:01:05.760Z,12.98
2019-02-04T08:03:45.690Z,13.15
2019-02-04T08:06:25.920Z,13.53
2019-02-04T08:09:09.575Z,19.32
2019-02-04T08:11:49.696Z,13.35
2019-02-04T08:14:29.460Z,14.25
2019-02-04T08:17:12.692Z,16.30
2019-02-04T08:19:52.067Z,18.30
2019-02-04T08:22:36.428Z,14.20
2019-02-04T08:25:18.319Z,25.37
2019-02-04T08:27:59.140Z,13.60
2019-02-04T08:30:39.247Z,16.20
2019-02-04T08:33:18.942Z,13.62
2019-02-04T08:35:59.155Z,14.65
2019-02-04T08:38:42.392Z,28.62
2019-02-04T08:41:23.813Z,19.73
2019-02-04T08:44:03.604Z,16.25
2019-02-04T08:46:44.464Z,12.75
2019-02-04T08:49:24.117Z,12.07
2019-02-04T08:52:04.539Z,14.25
2019-02-04T08:54:44.311Z,10.68
2019-02-04T08:57:24.014Z,15.72
2019-02-04T09:00:08.593Z,26.57
2019-02-04T09:02:48.542Z,10.08
2019-02-04T09:05:30.298Z,13.88
2019-02-04T09:08:09.796Z,12.43
2019-02-04T09:10:49.309Z,16.47
2019-02-04T09:13:28.818Z,15.57
2019-02-04T09:16:08.502Z,15.50
2019-02-04T09:18:48.236Z,13.50
2019-02-04T09:21:27.655Z,12.07
2019-02-04T09:24:07.288Z,14.40
2019-02-04T09:26:46.775Z,16.90
2019-02-04T09:29:26.995Z,16.37
2019-02-04T09:32:06.912Z,14.13
2019-02-04T09:34:46.372Z,11.17
2019-02-04T09:37:26.014Z,9.80
2019-02-04T09:40:07.133Z,14.23
2019-02-04T09:42:46.830Z,12.40
2019-02-04T09:45:27.788Z,13.80
2019-02-04T09:48:10.430Z,17.73
2019-02-04T09:50:54.154Z,16.90
2019-02-04T09:53:35.718Z,10.93
2019-02-04T09:56:15.661Z,18.60
2019-02-04T09:58:55.059Z,11.13
2019-02-04T10:01:34.597Z,12.30
2019-02-04T10:04:14.319Z,13.63
2019-02-04T10:06:55.492Z,14.63
2019-02-04T10:09:35.085Z,11.90
2019-02-04T10:12:15.929Z,13.80
2019-02-04T10:14:55.581Z,12.87
2019-02-04T10:17:35.196Z,13.47
2019-02-04T10:20:16.206Z,13.30
2019-02-04T10:22:56.140Z,15.30
2019-02-04T10:25:38.478Z,8.73
2019-02-04T10:28:18.093Z,12.90
2019-02-04T10:30:57.792Z,12.77
2019-02-04T10:33:37.511Z,10.53
2019-02-04T10:36:20.605Z,9.60
2019-02-04T10:39:00.085Z,9.83
2019-02-04T10:41:39.692Z,10.50
2019-02-04T10:44:19.242Z,11.03
2019-02-04T10:46:59.068Z,10.13
2019-02-04T10:49:38.813Z,13.80
2019-02-04T10:52:18.287Z,12.37
2019-02-04T10:54:57.929Z,8.87
2019-02-04T10:57:40.634Z,10.57
2019-02-04T11:00:21.820Z,10.47
2019-02-04T11:03:01.527Z,8.60
2019-02-04T11:05:41.295Z,9.23
2019-02-04T11:08:21.044Z,10.87
2019-02-04T11:11:00.806Z,10.20
2019-02-04T11:13:40.594Z,9.33
2019-02-04T11:16:20.402Z,9.27
2019-02-04T11:19:00.404Z,8.67
2019-02-04T11:21:40.238Z,8.17
2019-02-04T11:24:19.928Z,9.13
2019-02-04T11:26:59.481Z,10.73
2019-02-04T11:29:39.746Z,9.43
2019-02-04T11:32:19.613Z,14.37
2019-02-04T11:34:59.265Z,10.77
2019-02-04T11:37:39.136Z,12.13
2019-02-04T11:40:23.762Z,10.50
2019-02-04T11:43:03.401Z,10.73
2019-02-04T11:45:43.528Z,12.77
2019-02-04T11:48:23.306Z,11.57
2019-02-04T11:51:09.723Z,12.33
2019-02-04T11:53:45.186Z,12.50
2019-02-04T11:56:26.198Z,9.53
2019-02-04T11:59:05.804Z,10.37
2019-02-04T12:01:45.692Z,8.40
2019-02-04T12:04:25.354Z,10.60
2019-02-04T12:07:05.079Z,9.47
2019-02-04T12:09:45.183Z,8.60
2019-02-04T12:12:39.641Z,9.53
2019-02-04T12:15:22.579Z,10.00
2019-02-04T12:18:05.433Z,7.87
2019-02-04T12:20:45.203Z,10.20
2019-02-04T12:23:30.040Z,8.23
2019-02-04T12:26:13.919Z,10.93
2019-02-04T12:28:53.395Z,9.57
2019-02-04T12:31:35.786Z,9.90
2019-02-04T12:34:23.982Z,11.73
2019-02-04T12:37:15.906Z,8.80
2019-02-04T12:40:03.410Z,9.10
2019-02-04T12:42:44.737Z,7.90
2019-02-04T12:45:43.001Z,10.70
2019-02-04T12:48:27.303Z,7.80
2019-02-04T12:51:33.324Z,7.93
2019-02-04T12:54:07.140Z,6.90
2019-02-04T12:57:03.220Z,6.93
2019-02-04T12:59:45.177Z,6.17
2019-02-04T13:02:24.316Z,12.10
2019-02-04T13:05:04.724Z,8.03
2019-02-04T13:07:44.373Z,10.43
2019-02-04T13:10:24.010Z,8.00
2019-02-04T13:13:04.874Z,6.90
2019-02-04T13:15:44.585Z,6.40
2019-02-04T13:18:24.364Z,7.83
2019-02-04T13:21:03.994Z,7.03
2019-02-04T13:23:43.658Z,6.50
2019-02-04T13:26:23.159Z,5.57
2019-02-04T13:29:02.697Z,6.63
2019-02-04T13:31:42.287Z,8.33
2019-02-04T13:34:21.901Z,4.33
2019-02-04T13:37:01.451Z,6.13
2019-02-04T13:39:41.181Z,6.03
2019-02-04T13:42:20.774Z,7.73
2019-02-04T13:45:00.686Z,5.63
2019-02-04T13:47:40.319Z,4.77
2019-02-04T13:50:21.216Z,7.17
2019-02-04T13:53:01.425Z,7.43
2019-02-04T13:55:41.504Z,4.97
2019-02-04T13:58:21.882Z,8.13
2019-02-04T14:01:01.727Z,7.47
2019-02-04T14:03:41.349Z,4.60
2019-02-04T14:06:20.985Z,3.47
2019-02-04T14:09:01.233Z,5.03
2019-02-04T14:11:47.356Z,13.30
2019-02-04T14:14:26.972Z,6.77
2019-02-04T14:17:07.124Z,5.67
2019-02-04T14:19:50.376Z,3.60
2019-02-04T14:22:30.035Z,6.33
2019-02-04T14:25:09.634Z,5.37
2019-02-04T14:27:50.510Z,3.50
2019-02-04T14:30:38.400Z,5.47
2019-02-04T14:33:23.331Z,5.47
2019-02-04T14:36:05.977Z,4.67
2019-02-04T14:38:45.934Z,7.43
2019-02-04T14:41:25.641Z,10.55
2019-02-04T14:44:18.064Z,4.55
2019-02-04T14:47:36.011Z,5.92
2019-02-04T14:50:33.154Z,4.25
2019-02-04T14:53:57.349Z,6.10
2019-02-04T14:57:22.221Z,4.97
2019-02-04T15:00:33.533Z,4.78
2019-02-04T15:03:32.982Z,5.30
2019-02-04T15:06:54.239Z,7.03
2019-02-04T15:10:15.149Z,5.50
2019-02-04T15:13:48.930Z,7.72
2019-02-04T15:17:22.114Z,5.22
2019-02-04T15:20:44.629Z,5.75
2019-02-04T15:24:10.611Z,7.55
2019-02-04T15:28:00.056Z,6.90
2019-02-04T15:31:36.394Z,6.60
2019-02-04T15:35:14.277Z,5.40
2019-02-04T15:38:38.488Z,7.03
2019-02-04T15:42:31.975Z,9.23
2019-02-04T15:45:40.892Z,6.85
2019-02-04T15:49:03.510Z,6.40
2019-02-04T15:51:52.247Z,7.72
2019-02-04T15:54:32.090Z,8.60
2019-02-04T15:57:11.976Z,12.43
2019-02-04T15:59:53.520Z,11.70
2019-02-04T16:02:32.757Z,10.30
2019-02-04T16:05:12.988Z,12.63
2019-02-04T16:07:53.071Z,10.75
2019-02-04T16:10:32.938Z,11.57
2019-02-04T16:13:12.643Z,9.55
2019-02-04T16:15:54.884Z,14.70
2019-02-04T16:18:34.078Z,11.97
2019-02-04T16:21:14.018Z,12.50
2019-02-04T16:23:54.302Z,10.80
2019-02-04T16:26:33.594Z,11.60
2019-02-04T16:29:12.922Z,7.30
2019-02-04T16:31:54.641Z,10.80
2019-02-04T16:34:36.081Z,12.05
2019-02-04T16:37:16.016Z,13.13
2019-02-04T16:39:55.414Z,12.60
2019-02-04T16:42:34.686Z,13.75
2019-02-04T16:45:19.852Z,19.62
2019-02-04T16:48:00.644Z,15.25
2019-02-04T16:50:39.963Z,15.65
2019-02-04T16:53:19.291Z,14.93
2019-02-04T16:55:59.153Z,15.95
2019-02-04T16:58:39.522Z,14.73
2019-02-04T17:01:25.394Z,17.52
2019-02-04T17:04:06.339Z,13.70
2019-02-04T17:06:47.678Z,15.68
2019-02-04T17:09:29.269Z,17.45
2019-02-04T17:12:12.748Z,15.83
2019-02-04T17:14:51.768Z,18.75
2019-02-04T17:17:31.721Z,13.72
2019-02-04T17:20:32.662Z,15.05
2019-02-04T17:23:21.913Z,15.20
2019-02-04T17:25:53.844Z,25.95
2019-02-04T17:28:33.617Z,22.87
2019-02-04T17:31:14.183Z,22.62
2019-02-04T17:33:56.407Z,19.00
2019-02-04T17:36:35.674Z,13.33
2019-02-04T17:39:15.599Z,16.52
2019-02-04T17:41:55.776Z,13.48
2019-02-04T17:44:35.713Z,15.75
2019-02-04T17:47:15.012Z,10.57
2019-02-04T17:49:55.218Z,16.60
2019-02-04T17:52:35.778Z,12.55
2019-02-04T17:55:28.224Z,13.80
2019-02-04T17:58:07.661Z,14.45
2019-02-04T18:00:49.895Z,19.12
2019-02-04T18:03:29.709Z,19.50
2019-02-04T18:06:11.480Z,15.98
2019-02-04T18:08:51.167Z,18.40
2019-02-04T18:11:37.958Z,16.77
2019-02-04T18:14:17.168Z,16.43
2019-02-04T18:16:56.539Z,17.33
2019-02-04T18:19:35.966Z,20.97
2019-02-04T18:22:19.886Z,18.23
2019-02-04T18:24:59.753Z,18.50
2019-02-04T18:27:39.166Z,23.18
2019-02-04T18:30:19.675Z,21.73
2019-02-04T18:32:59.091Z,19.20
2019-02-04T18:35:39.169Z,18.70
2019-02-04T18:38:18.511Z,21.80
2019-02-04T18:40:59.727Z,19.80
2019-02-04T18:43:39.511Z,18.17
2019-02-04T18:46:18.813Z,16.43
2019-02-04T18:48:59.546Z,19.07
2019-02-04T18:51:39.072Z,16.93
2019-02-04T18:54:18.819Z,26.47
2019-02-04T18:57:01.661Z,21.48
2019-02-04T18:59:41.757Z,18.00
2019-02-04T19:02:21.376Z,17.00
2019-02-04T19:05:01.246Z,19.70
2019-02-04T19:07:43.356Z,17.07
2019-02-04T19:10:24.414Z,19.37
2019-02-04T19:13:04.056Z,19.73
2019-02-04T19:15:43.456Z,20.20
2019-02-04T19:18:22.944Z,16.10
2019-02-04T19:21:02.526Z,22.20
2019-02-04T19:23:42.013Z,24.47
2019-02-04T19:26:21.348Z,20.93
2019-02-04T19:29:00.836Z,19.97
2019-02-04T19:31:41.263Z,19.47
2019-02-04T19:34:20.678Z,22.97
2019-02-04T19:37:00.254Z,23.13
2019-02-04T19:39:52.341Z,17.87
2019-02-04T19:42:32.032Z,18.50
2019-02-04T19:45:16.418Z,18.27
2019-02-04T19:47:56.841Z,14.30
2019-02-04T19:50:39.221Z,16.57
2019-02-04T19:53:22.715Z,21.87
2019-02-04T19:56:01.204Z,16.77
2019-02-04T19:58:42.960Z,17.93
2019-02-04T20:01:22.711Z,18.87
2019-02-04T20:04:03.202Z,18.23
2019-02-04T20:06:43.737Z,19.03
2019-02-04T20:09:23.957Z,20.67
2019-02-04T20:12:04.294Z,17.90
2019-02-04T20:14:45.432Z,22.33
2019-02-04T20:17:29.032Z,18.37
2019-02-04T20:20:11.323Z,16.87
2019-02-04T20:22:51.067Z,16.77
2019-02-04T20:25:31.805Z,20.53
2019-02-04T20:28:11.723Z,18.13
2019-02-04T20:30:51.305Z,21.93
2019-02-04T20:33:31.414Z,20.40
2019-02-04T20:36:12.149Z,19.73
2019-02-04T20:38:52.994Z,17.60
2019-02-04T20:41:32.921Z,19.77
2019-02-04T20:44:14.013Z,22.57
2019-02-04T20:46:53.947Z,17.40
2019-02-04T20:49:34.722Z,20.33
2019-02-04T20:52:14.507Z,26.70
2019-02-04T20:54:55.270Z,21.93
2019-02-04T20:57:35.041Z,25.77
2019-02-04T21:00:21.709Z,26.10
2019-02-04T21:03:02.167Z,23.70
2019-02-04T21:05:42.123Z,18.90
2019-02-04T21:08:21.588Z,25.73
2019-02-04T21:11:01.328Z,21.20
2019-02-04T21:13:40.799Z,20.70
2019-02-04T21:16:20.324Z,27.53
2019-02-04T21:18:59.672Z,19.27
2019-02-04T21:21:39.112Z,22.50
2019-02-04T21:24:18.416Z,19.07
2019-02-04T21:26:57.855Z,23.90
2019-02-04T21:29:37.613Z,21.80
2019-02-04T21:32:19.504Z,18.50
2019-02-04T21:34:59.025Z,20.53
2019-02-04T21:37:38.982Z,25.90
2019-02-04T21:40:19.023Z,22.70
2019-02-04T21:42:59.002Z,23.90
2019-02-04T21:45:38.218Z,19.23
2019-02-04T21:48:17.490Z,22.63
2019-02-04T21:50:56.923Z,23.27
2019-02-04T21:53:37.024Z,24.93
2019-02-04T21:56:16.289Z,19.77
2019-02-04T21:58:55.547Z,14.93
2019-02-04T22:01:34.788Z,19.07
2019-02-04T22:04:15.043Z,14.20
2019-02-04T22:06:55.471Z,21.20
2019-02-04T22:09:54.303Z,17.43
2019-02-04T22:12:38.204Z,18.37
2019-02-04T22:15:19.691Z,19.37
2019-02-04T22:17:59.231Z,17.57
2019-02-04T22:20:38.695Z,17.50
2019-02-04T22:23:18.027Z,13.67
2019-02-04T22:25:57.680Z,18.23
2019-02-04T22:28:37.017Z,15.57
2019-02-04T22:31:16.456Z,15.20
2019-02-04T22:33:55.623Z,15.40
2019-02-04T22:36:37.648Z,16.43
2019-02-04T22:39:17.083Z,16.90
2019-02-04T22:41:56.303Z,16.17
2019-02-04T22:44:35.641Z,13.03
2019-02-04T22:47:15.047Z,14.33
2019-02-04T22:49:55.016Z,12.80
2019-02-04T22:52:34.400Z,14.33
2019-02-04T22:55:14.417Z,13.70
2019-02-04T22:57:56.534Z,15.47
2019-02-04T23:01:23.297Z,16.63
2019-02-04T23:04:06.198Z,15.30
2019-02-04T23:06:45.357Z,14.17
2019-02-04T23:09:24.580Z,16.10
2019-02-04T23:12:04.272Z,11.77
2019-02-04T23:14:43.572Z,15.70
2019-02-04T23:17:22.955Z,14.93
2019-02-04T23:20:02.175Z,15.30
2019-02-04T23:22:44.015Z,16.20
2019-02-04T23:25:22.463Z,16.37
2019-02-04T23:28:01.951Z,12.20
2019-02-04T23:30:43.712Z,14.90
2019-02-04T23:33:34.167Z,14.23
2019-02-04T23:36:13.291Z,16.23
2019-02-04T23:38:52.511Z,13.67
2019-02-04T23:41:31.874Z,17.47
2019-02-04T23:44:11.192Z,15.53
2019-02-04T23:46:52.451Z,18.93
2019-02-04T23:49:31.698Z,13.43
2019-02-04T23:52:11.113Z,12.17
2019-02-04T23:54:50.339Z,14.07
2019-02-04T23:57:29.668Z,9.93
